createdAt,value
2023-02-19T00:01:26.264Z,101251.09
2023-02-19T00:03:58.539Z,101257.53
2023-02-19T00:06:27.051Z,101264.00
2023-02-19T00:08:53.576Z,101257.88
2023-02-19T00:11:22.359Z,101260.34
2023-02-19T00:13:50.956Z,101255.63
2023-02-19T00:16:23.611Z,101264.09
2023-02-19T00:18:50.325Z,101262.47
2023-02-19T00:21:17.387Z,101263.31
2023-02-19T00:23:43.962Z,101261.06
2023-02-19T00:26:18.277Z,101269.41
2023-02-19T00:28:46.245Z,101269.09
2023-02-19T00:31:40.303Z,101275.16
2023-02-19T00:34:06.933Z,101264.94
2023-02-19T00:36:35.952Z,101269.09
2023-02-19T00:39:03.462Z,101260.38
2023-02-19T00:41:30.572Z,101253.56
2023-02-19T00:43:56.886Z,101249.00
2023-02-19T00:46:28.741Z,101260.38
2023-02-19T00:48:56.232Z,101260.38
2023-02-19T00:51:24.452Z,101260.34
2023-02-19T00:53:51.124Z,101267.50
2023-02-19T00:56:17.770Z,101273.59
2023-02-19T00:58:44.363Z,101279.72
2023-02-19T01:01:11.454Z,101259.50
2023-02-19T01:03:38.897Z,101261.19
2023-02-19T01:06:06.677Z,101262.63
2023-02-19T01:08:33.633Z,101258.47
2023-02-19T01:11:01.156Z,101261.13
2023-02-19T01:13:28.455Z,101250.53
2023-02-19T01:16:06.362Z,101260.38
2023-02-19T01:18:33.077Z,101264.19
2023-02-19T01:20:59.516Z,101271.75
2023-02-19T01:23:25.900Z,101269.50
2023-02-19T01:25:52.307Z,101261.16
2023-02-19T01:28:18.683Z,101277.06
2023-02-19T01:30:45.227Z,101269.09
2023-02-19T01:33:11.646Z,101277.84
2023-02-19T01:35:38.804Z,101282.44
2023-02-19T01:38:07.342Z,101276.34
2023-02-19T01:40:34.047Z,101266.44
2023-02-19T01:43:00.419Z,101254.31
2023-02-19T01:45:32.807Z,101262.69
2023-02-19T01:48:18.783Z,101266.47
2023-02-19T01:50:49.222Z,101273.69
2023-02-19T01:53:19.350Z,101280.13
2023-02-19T01:55:47.170Z,101273.69
2023-02-19T01:58:15.173Z,101278.22
2023-02-19T02:00:41.919Z,101279.38
2023-02-19T02:03:08.477Z,101287.72
2023-02-19T02:05:46.408Z,101286.19
2023-02-19T02:08:33.228Z,101286.19
2023-02-19T02:10:59.758Z,101285.78
2023-02-19T02:13:26.497Z,101289.19
2023-02-19T02:16:39.263Z,101284.66
2023-02-19T02:19:22.505Z,101288.44
2023-02-19T02:22:09.674Z,101274.72
2023-02-19T02:24:57.227Z,101289.22
2023-02-19T02:27:43.310Z,101289.22
2023-02-19T02:30:40.046Z,101291.53
2023-02-19T02:33:19.438Z,101284.63
2023-02-19T02:35:58.325Z,101295.25
2023-02-19T02:38:29.396Z,101289.97
2023-02-19T02:40:56.063Z,101288.44
2023-02-19T02:43:22.728Z,101292.25
2023-02-19T02:45:49.287Z,101288.44
2023-02-19T02:48:24.991Z,101287.97
2023-02-19T02:51:20.953Z,101285.00
2023-02-19T02:54:12.659Z,101275.03
2023-02-19T02:56:41.195Z,101275.38
2023-02-19T02:59:10.133Z,101274.03
2023-02-19T03:02:11.787Z,101291.38
2023-02-19T03:05:07.630Z,101295.09
2023-02-19T03:07:40.242Z,101280.56
2023-02-19T03:10:10.665Z,101283.72
2023-02-19T03:12:58.747Z,101301.66
2023-02-19T03:15:47.027Z,101316.06
2023-02-19T03:18:33.059Z,101317.13
2023-02-19T03:21:00.326Z,101328.50
2023-02-19T03:23:49.755Z,101324.47
2023-02-19T03:26:17.550Z,101326.03
2023-02-19T03:29:04.140Z,101334.88
2023-02-19T03:31:33.152Z,101341.56
2023-02-19T03:34:02.132Z,101332.81
2023-02-19T03:36:35.307Z,101330.97
2023-02-19T03:39:09.300Z,101343.44
2023-02-19T03:41:58.150Z,101346.03
2023-02-19T03:44:37.986Z,101358.09
2023-02-19T03:47:26.190Z,101356.81
2023-02-19T03:50:03.246Z,101361.94
2023-02-19T03:52:47.156Z,101379.94
2023-02-19T03:55:19.214Z,101379.34
2023-02-19T03:57:51.891Z,101385.47
2023-02-19T04:00:22.596Z,101392.63
2023-02-19T04:03:08.959Z,101397.41
2023-02-19T04:05:37.999Z,101400.41
2023-02-19T04:08:09.432Z,101403.66
2023-02-19T04:10:37.053Z,101415.41
2023-02-19T04:13:07.015Z,101422.66
2023-02-19T04:15:34.422Z,101423.50
2023-02-19T04:18:04.700Z,101435.25
2023-02-19T04:20:37.289Z,101438.16
2023-02-19T04:23:03.750Z,101443.91
2023-02-19T04:25:30.608Z,101448.31
2023-02-19T04:27:57.142Z,101441.56
2023-02-19T04:30:23.613Z,101451.47
2023-02-19T04:32:50.073Z,101458.59
2023-02-19T04:35:16.663Z,101467.38
2023-02-19T04:37:43.424Z,101463.28
2023-02-19T04:40:10.506Z,101461.25
2023-02-19T04:42:37.182Z,101469.00
2023-02-19T04:45:03.853Z,101473.50
2023-02-19T04:47:32.256Z,101478.00
2023-02-19T04:49:58.681Z,101479.44
2023-02-19T04:52:25.123Z,101489.41
2023-02-19T04:54:51.703Z,101477.88
2023-02-19T04:57:18.153Z,101490.97
2023-02-19T04:59:44.565Z,101497.09
2023-02-19T05:02:10.961Z,101500.03
2023-02-19T05:04:37.382Z,101498.47
2023-02-19T05:07:03.854Z,101505.34
2023-02-19T05:09:30.302Z,101509.09
2023-02-19T05:11:56.746Z,101508.81
2023-02-19T05:14:23.214Z,101515.25
2023-02-19T05:16:49.671Z,101513.03
2023-02-19T05:19:16.109Z,101528.56
2023-02-19T05:21:42.704Z,101532.66
2023-02-19T05:24:09.294Z,101531.38
2023-02-19T05:26:36.010Z,101533.00
2023-02-19T05:29:02.971Z,101545.59
2023-02-19T05:31:29.528Z,101548.66
2023-02-19T05:33:56.532Z,101559.28
2023-02-19T05:36:23.840Z,101567.91
2023-02-19T05:38:57.091Z,101567.53
2023-02-19T05:41:26.134Z,101568.84
2023-02-19T05:43:53.253Z,101582.13
2023-02-19T05:46:22.401Z,101589.34
2023-02-19T05:48:49.822Z,101585.03
2023-02-19T05:51:18.595Z,101597.25
2023-02-19T05:53:45.903Z,101602.75
2023-02-19T05:56:27.492Z,101612.41
2023-02-19T05:58:54.786Z,101623.41
2023-02-19T06:01:22.822Z,101619.03
2023-02-19T06:03:49.331Z,101617.22
2023-02-19T06:06:17.336Z,101616.13
2023-02-19T06:08:43.887Z,101614.44
2023-02-19T06:11:10.615Z,101619.16
2023-02-19T06:13:37.266Z,101625.88
2023-02-19T06:16:05.094Z,101631.97
2023-02-19T06:18:31.544Z,101633.66
2023-02-19T06:21:05.696Z,101638.78
2023-02-19T06:23:32.565Z,101639.28
2023-02-19T06:26:23.302Z,101658.38
2023-02-19T06:28:51.876Z,101662.25
2023-02-19T06:31:19.685Z,101666.84
2023-02-19T06:33:46.936Z,101662.59
2023-02-19T06:36:15.737Z,101674.28
2023-02-19T06:38:42.395Z,101675.94
2023-02-19T06:41:11.333Z,101686.22
2023-02-19T06:43:38.310Z,101693.13
2023-02-19T06:46:06.578Z,101699.34
2023-02-19T06:48:33.674Z,101704.69
2023-02-19T06:51:00.105Z,101709.25
2023-02-19T06:53:26.625Z,101719.09
2023-02-19T06:56:01.221Z,101725.13
2023-02-19T06:58:27.794Z,101730.53
2023-02-19T07:00:54.436Z,101726.72
2023-02-19T07:03:21.397Z,101730.47
2023-02-19T07:05:47.901Z,101734.63
2023-02-19T07:08:14.486Z,101735.38
2023-02-19T07:10:40.959Z,101743.78
2023-02-19T07:13:07.360Z,101758.69
2023-02-19T07:15:33.813Z,101764.03
2023-02-19T07:18:00.323Z,101763.59
2023-02-19T07:20:26.762Z,101767.84
2023-02-19T07:22:53.201Z,101780.75
2023-02-19T07:25:19.648Z,101785.78
2023-02-19T07:27:46.048Z,101796.78
2023-02-19T07:30:12.951Z,101800.91
2023-02-19T07:32:42.795Z,101819.34
2023-02-19T07:35:09.344Z,101819.63
2023-02-19T07:37:35.835Z,101816.53
2023-02-19T07:40:02.505Z,101828.50
2023-02-19T07:42:28.952Z,101827.97
2023-02-19T07:44:55.346Z,101833.75
2023-02-19T07:47:21.816Z,101838.16
2023-02-19T07:49:48.345Z,101838.81
2023-02-19T07:52:14.820Z,101862.19
2023-02-19T07:54:41.216Z,101859.09
2023-02-19T07:57:07.628Z,101856.91
2023-02-19T07:59:34.886Z,101868.34
2023-02-19T08:02:19.868Z,101858.56
2023-02-19T08:04:49.431Z,101852.56
2023-02-19T08:07:15.844Z,101859.38
2023-02-19T08:09:42.215Z,101846.47
2023-02-19T08:12:29.294Z,101844.91
2023-02-19T08:14:55.719Z,101850.22
2023-02-19T08:17:22.221Z,101840.81
2023-02-19T08:19:48.709Z,101839.31
2023-02-19T08:22:16.352Z,101840.09
2023-02-19T08:24:44.943Z,101854.13
2023-02-19T08:27:11.383Z,101862.06
2023-02-19T08:29:37.788Z,101865.63
2023-02-19T08:32:04.352Z,101870.22
2023-02-19T08:34:30.803Z,101877.81
2023-02-19T08:36:57.221Z,101876.19
2023-02-19T08:39:23.648Z,101882.22
2023-02-19T08:41:50.558Z,101889.50
2023-02-19T08:44:16.981Z,101899.81
2023-02-19T08:46:43.369Z,101892.84
2023-02-19T08:49:09.936Z,101895.22
2023-02-19T08:51:36.354Z,101899.31
2023-02-19T08:54:04.217Z,101897.53
2023-02-19T08:56:30.935Z,101905.56
2023-02-19T08:58:57.321Z,101904.34
2023-02-19T09:01:23.996Z,101916.38
2023-02-19T09:03:50.500Z,101915.97
2023-02-19T09:06:19.464Z,101916.59
2023-02-19T09:08:46.057Z,101920.75
2023-02-19T09:11:13.178Z,101934.13
2023-02-19T09:13:39.790Z,101941.06
2023-02-19T09:16:06.827Z,101928.13
2023-02-19T09:18:33.476Z,101943.41
2023-02-19T09:21:01.504Z,101949.53
2023-02-19T09:23:28.393Z,101962.09
2023-02-19T09:25:59.992Z,101963.25
2023-02-19T09:28:27.581Z,101973.16
2023-02-19T09:30:54.179Z,101980.66
2023-02-19T09:33:20.637Z,101985.69
2023-02-19T09:35:47.056Z,101982.28
2023-02-19T09:38:13.572Z,101990.66
2023-02-19T09:40:40.118Z,102002.84
2023-02-19T09:43:08.800Z,102005.09
2023-02-19T09:45:36.051Z,102023.38
2023-02-19T09:48:02.939Z,102035.63
2023-02-19T09:50:39.782Z,102037.16
2023-02-19T09:53:15.356Z,102034.91
2023-02-19T09:55:43.866Z,102043.94
2023-02-19T09:58:42.747Z,102063.81
2023-02-19T10:01:11.324Z,102059.66
2023-02-19T10:03:41.335Z,102053.25
2023-02-19T10:06:20.395Z,102060.47
2023-02-19T10:08:48.262Z,102059.66
2023-02-19T10:11:14.969Z,102057.78
2023-02-19T10:13:49.048Z,102068.09
2023-02-19T10:16:25.177Z,102079.53
2023-02-19T10:18:51.858Z,102080.63
2023-02-19T10:21:24.271Z,102084.13
2023-02-19T10:23:56.160Z,102079.56
2023-02-19T10:26:23.408Z,102077.56
2023-02-19T10:28:49.826Z,102071.53
2023-02-19T10:31:24.586Z,102067.34
2023-02-19T10:33:58.813Z,102070.00
2023-02-19T10:36:40.181Z,102063.16
2023-02-19T10:39:39.274Z,102046.34
2023-02-19T10:42:05.855Z,102050.94
2023-02-19T10:44:41.516Z,102064.69
2023-02-19T10:47:08.115Z,102073.84
2023-02-19T10:49:43.905Z,102076.81
2023-02-19T10:52:34.357Z,102094.41
2023-02-19T10:55:26.208Z,102096.66
2023-02-19T10:57:52.679Z,102111.19
2023-02-19T11:00:30.165Z,102128.75
2023-02-19T11:03:21.157Z,102128.78
2023-02-19T11:05:56.888Z,102128.78
2023-02-19T11:08:23.816Z,102127.22
2023-02-19T11:10:50.476Z,102129.09
2023-02-19T11:13:26.454Z,102134.47
2023-02-19T11:15:54.917Z,102135.97
2023-02-19T11:18:24.422Z,102144.72
2023-02-19T11:21:02.598Z,102140.63
2023-02-19T11:23:47.565Z,102127.22
2023-02-19T11:26:20.402Z,102134.47
2023-02-19T11:28:55.912Z,102134.09
2023-02-19T11:31:27.487Z,102132.56
2023-02-19T11:34:02.156Z,102123.28
2023-02-19T11:36:36.506Z,102120.25
2023-02-19T11:39:17.675Z,102115.28
2023-02-19T11:41:55.183Z,102128.38
2023-02-19T11:44:34.081Z,102118.84
2023-02-19T11:47:21.961Z,102121.00
2023-02-19T11:49:57.466Z,102116.94
2023-02-19T11:52:49.680Z,102108.94
2023-02-19T11:55:30.635Z,102107.34
2023-02-19T11:58:11.665Z,102109.50
2023-02-19T12:00:49.494Z,102106.72
2023-02-19T12:03:25.322Z,102115.59
2023-02-19T12:06:16.951Z,102116.09
2023-02-19T12:09:14.011Z,102117.31
2023-02-19T12:11:53.575Z,102119.84
2023-02-19T12:14:44.945Z,102133.81
2023-02-19T12:17:30.170Z,102143.09
2023-02-19T12:20:21.052Z,102144.47
2023-02-19T12:23:09.442Z,102138.91
2023-02-19T12:25:45.135Z,102140.88
2023-02-19T12:28:32.985Z,102135.19
2023-02-19T12:31:14.264Z,102136.22
2023-02-19T12:34:04.501Z,102135.28
2023-02-19T12:36:46.701Z,102136.53
2023-02-19T12:39:38.168Z,102133.19
2023-02-19T12:42:30.943Z,102137.53
2023-02-19T12:45:07.533Z,102129.72
2023-02-19T12:47:40.802Z,102134.94
2023-02-19T12:50:27.367Z,102140.91
2023-02-19T12:53:23.353Z,102134.13
2023-02-19T12:55:50.642Z,102135.94
2023-02-19T12:58:30.885Z,102134.53
2023-02-19T13:00:59.755Z,102132.97
2023-02-19T13:03:35.421Z,102152.94
2023-02-19T13:06:10.085Z,102147.09
2023-02-19T13:09:11.382Z,102144.22
2023-02-19T13:11:43.645Z,102138.31
2023-02-19T13:14:21.330Z,102132.50
2023-02-19T13:16:51.323Z,102121.91
2023-02-19T13:19:17.922Z,102120.59
2023-02-19T13:22:05.852Z,102123.28
2023-02-19T13:24:35.491Z,102133.25
2023-02-19T13:27:17.546Z,102126.50
2023-02-19T13:29:52.184Z,102122.03
2023-02-19T13:32:37.862Z,102127.91
2023-02-19T13:35:25.379Z,102144.25
2023-02-19T13:37:52.791Z,102142.31
2023-02-19T13:40:37.379Z,102144.38
2023-02-19T13:43:21.403Z,102150.59
2023-02-19T13:45:57.627Z,102147.53
2023-02-19T13:48:23.957Z,102142.84
2023-02-19T13:50:51.348Z,102140.41
2023-02-19T13:53:46.014Z,102149.94
2023-02-19T13:56:34.344Z,102146.19
2023-02-19T13:59:23.707Z,102153.03
2023-02-19T14:01:51.343Z,102163.75
2023-02-19T14:04:23.760Z,102161.38
2023-02-19T14:07:05.694Z,102162.84
2023-02-19T14:09:39.956Z,102161.03
2023-02-19T14:12:15.068Z,102164.91
2023-02-19T14:14:54.661Z,102164.06
2023-02-19T14:17:40.070Z,102164.88
2023-02-19T14:20:09.434Z,102164.16
2023-02-19T14:22:56.892Z,102163.03
2023-02-19T14:25:35.610Z,102156.19
2023-02-19T14:28:17.356Z,102154.69
2023-02-19T14:30:49.823Z,102162.28
2023-02-19T14:33:17.851Z,102159.22
2023-02-19T14:35:46.599Z,102153.84
2023-02-19T14:38:34.777Z,102129.44
2023-02-19T14:41:01.246Z,102122.09
2023-02-19T14:43:28.172Z,102122.50
2023-02-19T14:46:04.717Z,102114.94
2023-02-19T14:48:35.678Z,102110.34
2023-02-19T14:51:06.885Z,102106.56
2023-02-19T14:53:39.907Z,102108.03
2023-02-19T14:56:07.750Z,102093.53
2023-02-19T14:58:36.959Z,102095.47
2023-02-19T15:01:05.413Z,102105.59
2023-02-19T15:03:37.169Z,102095.97
2023-02-19T15:06:06.447Z,102097.81
2023-02-19T15:08:44.162Z,102105.50
2023-02-19T15:11:22.853Z,102101.47
2023-02-19T15:13:55.454Z,102101.47
2023-02-19T15:16:25.713Z,102101.75
2023-02-19T15:18:53.236Z,102101.47
2023-02-19T15:21:31.649Z,102111.00
2023-02-19T15:24:05.797Z,102100.41
2023-02-19T15:26:32.141Z,102113.31
2023-02-19T15:29:03.710Z,102112.53
2023-02-19T15:31:30.569Z,102104.91
2023-02-19T15:33:57.070Z,102110.28
2023-02-19T15:36:31.873Z,102117.47
2023-02-19T15:39:01.335Z,102117.84
2023-02-19T15:41:31.828Z,102118.28
2023-02-19T15:44:02.709Z,102118.28
2023-02-19T15:46:29.242Z,102118.63
2023-02-19T15:49:14.625Z,102113.38
2023-02-19T15:51:46.339Z,102119.03
2023-02-19T15:54:34.360Z,102120.94
2023-02-19T15:57:06.312Z,102124.81
2023-02-19T15:59:43.925Z,102134.38
2023-02-19T16:02:14.471Z,102125.66
2023-02-19T16:04:43.476Z,102134.84
2023-02-19T16:07:31.898Z,102141.72
2023-02-19T16:10:20.253Z,102139.81
2023-02-19T16:13:00.627Z,102142.47
2023-02-19T16:15:29.318Z,102144.81
2023-02-19T16:17:56.663Z,102135.63
2023-02-19T16:20:26.907Z,102141.72
2023-02-19T16:22:59.543Z,102134.13
2023-02-19T16:25:35.476Z,102136.38
2023-02-19T16:28:10.632Z,102136.78
2023-02-19T16:30:37.187Z,102134.84
2023-02-19T16:33:34.819Z,102143.97
2023-02-19T16:36:32.391Z,102147.31
2023-02-19T16:39:07.997Z,102158.41
2023-02-19T16:41:40.501Z,102156.06
2023-02-19T16:44:25.189Z,102152.66
2023-02-19T16:46:57.643Z,102156.88
2023-02-19T16:49:24.496Z,102164.78
2023-02-19T16:51:50.982Z,102168.19
2023-02-19T16:54:17.401Z,102169.47
2023-02-19T16:56:43.856Z,102159.13
2023-02-19T16:59:10.283Z,102160.63
2023-02-19T17:01:37.369Z,102164.09
2023-02-19T17:04:10.843Z,102164.06
2023-02-19T17:06:37.843Z,102156.78
2023-02-19T17:09:05.449Z,102164.03
2023-02-19T17:11:31.969Z,102165.16
2023-02-19T17:13:58.435Z,102155.97
2023-02-19T17:16:29.690Z,102156.66
2023-02-19T17:18:56.279Z,102155.63
2023-02-19T17:21:23.710Z,102159.91
2023-02-19T17:23:50.196Z,102161.50
2023-02-19T17:26:19.170Z,102163.69
2023-02-19T17:28:45.998Z,102167.50
2023-02-19T17:31:14.755Z,102156.78
2023-02-19T17:33:42.727Z,102163.56
2023-02-19T17:36:17.193Z,102164.47
2023-02-19T17:38:43.735Z,102168.22
2023-02-19T17:41:10.683Z,102168.28
2023-02-19T17:43:37.278Z,102180.53
2023-02-19T17:46:04.140Z,102176.75
2023-02-19T17:48:30.731Z,102181.91
2023-02-19T17:50:57.325Z,102179.56
2023-02-19T17:53:23.739Z,102184.22
2023-02-19T17:55:50.168Z,102180.69
2023-02-19T17:58:16.557Z,102185.22
2023-02-19T18:00:42.952Z,102195.53
2023-02-19T18:03:10.403Z,102201.72
2023-02-19T18:05:36.789Z,102194.50
2023-02-19T18:08:03.296Z,102192.81
2023-02-19T18:10:30.521Z,102198.88
2023-02-19T18:12:56.914Z,102207.84
2023-02-19T18:15:26.869Z,102206.56
2023-02-19T18:17:54.362Z,102196.69
2023-02-19T18:20:26.130Z,102209.75
2023-02-19T18:22:53.367Z,102205.25
2023-02-19T18:25:20.440Z,102204.50
2023-02-19T18:27:47.519Z,102197.69
2023-02-19T18:30:18.969Z,102198.88
2023-02-19T18:32:48.089Z,102196.56
2023-02-19T18:35:15.144Z,102193.28
2023-02-19T18:37:41.536Z,102190.22
2023-02-19T18:40:08.549Z,102186.13
2023-02-19T18:42:34.942Z,102188.47
2023-02-19T18:45:01.463Z,102191.16
2023-02-19T18:47:27.953Z,102186.69
2023-02-19T18:49:55.838Z,102182.34
2023-02-19T18:52:24.798Z,102175.97
2023-02-19T18:54:52.619Z,102173.69
2023-02-19T18:57:20.524Z,102165.06
2023-02-19T18:59:47.546Z,102173.63
2023-02-19T19:02:15.042Z,102167.59
2023-02-19T19:04:41.653Z,102165.91
2023-02-19T19:07:09.240Z,102177.28
2023-02-19T19:09:36.491Z,102174.13
2023-02-19T19:12:03.325Z,102186.81
2023-02-19T19:14:29.741Z,102187.72
2023-02-19T19:16:56.264Z,102184.97
2023-02-19T19:19:22.705Z,102181.97
2023-02-19T19:21:53.525Z,102173.56
2023-02-19T19:24:20.972Z,102175.09
2023-02-19T19:26:48.347Z,102178.25
2023-02-19T19:29:16.061Z,102181.25
2023-02-19T19:31:43.184Z,102178.25
2023-02-19T19:34:10.439Z,102185.94
2023-02-19T19:36:37.091Z,102176.81
2023-02-19T19:39:04.004Z,102179.81
2023-02-19T19:41:30.539Z,102181.34
2023-02-19T19:43:57.125Z,102179.81
2023-02-19T19:46:23.788Z,102176.09
2023-02-19T19:48:51.101Z,102183.84
2023-02-19T19:51:17.750Z,102172.81
2023-02-19T19:53:46.929Z,102173.38
2023-02-19T19:56:13.470Z,102180.53
2023-02-19T19:58:40.314Z,102165.38
2023-02-19T20:01:06.866Z,102170.00
2023-02-19T20:03:33.810Z,102166.72
2023-02-19T20:06:00.295Z,102144.72
2023-02-19T20:08:26.706Z,102145.47
2023-02-19T20:10:53.141Z,102147.66
2023-02-19T20:13:24.169Z,102149.84
2023-02-19T20:15:53.602Z,102141.25
2023-02-19T20:18:21.439Z,102145.47
2023-02-19T20:20:47.863Z,102146.59
2023-02-19T20:23:14.280Z,102149.19
2023-02-19T20:25:40.695Z,102140.41
2023-02-19T20:28:07.120Z,102141.69
2023-02-19T20:30:33.561Z,102145.41
2023-02-19T20:33:00.033Z,102152.97
2023-02-19T20:35:28.621Z,102149.59
2023-02-19T20:37:55.610Z,102154.53
2023-02-19T20:40:27.323Z,102152.19
2023-02-19T20:42:54.263Z,102147.88
2023-02-19T20:45:21.370Z,102148.31
2023-02-19T20:47:48.001Z,102146.41
2023-02-19T20:50:17.434Z,102151.38
2023-02-19T20:52:43.861Z,102149.84
2023-02-19T20:55:10.323Z,102142.16
2023-02-19T20:57:37.407Z,102155.00
2023-02-19T21:00:05.322Z,102147.50
2023-02-19T21:02:31.886Z,102155.13
2023-02-19T21:04:58.694Z,102148.31
2023-02-19T21:07:25.871Z,102152.19
2023-02-19T21:09:52.331Z,102155.38
2023-02-19T21:12:19.817Z,102150.31
2023-02-19T21:14:46.556Z,102153.59
2023-02-19T21:17:13.366Z,102152.25
2023-02-19T21:19:39.994Z,102154.75
2023-02-19T21:22:06.471Z,102152.81
2023-02-19T21:24:32.907Z,102150.88
2023-02-19T21:26:59.439Z,102142.72
2023-02-19T21:29:26.076Z,102148.06
2023-02-19T21:31:55.047Z,102148.00
2023-02-19T21:34:26.564Z,102134.38
2023-02-19T21:36:53.512Z,102135.19
2023-02-19T21:39:22.099Z,102123.75
2023-02-19T21:41:48.754Z,102110.06
2023-02-19T21:44:15.482Z,102107.84
2023-02-19T21:46:42.017Z,102099.41
2023-02-19T21:49:08.680Z,102094.66
2023-02-19T21:51:37.681Z,102091.94
2023-02-19T21:54:05.204Z,102088.56
2023-02-19T21:56:35.117Z,102076.53
2023-02-19T21:59:02.576Z,102074.53
2023-02-19T22:01:31.361Z,102074.69
2023-02-19T22:03:58.131Z,102069.25
2023-02-19T22:06:28.694Z,102070.81
2023-02-19T22:08:55.492Z,102069.81
2023-02-19T22:11:21.974Z,102084.56
2023-02-19T22:13:48.549Z,102096.69
2023-02-19T22:16:15.272Z,102096.34
2023-02-19T22:18:48.798Z,102097.97
2023-02-19T22:21:15.823Z,102106.34
2023-02-19T22:23:46.963Z,102093.63
2023-02-19T22:26:23.172Z,102109.63
2023-02-19T22:28:50.224Z,102118.91
2023-02-19T22:31:22.292Z,102120.19
2023-02-19T22:33:48.959Z,102115.75
2023-02-19T22:36:23.888Z,102118.50
2023-02-19T22:38:50.531Z,102109.94
2023-02-19T22:41:18.398Z,102112.03
2023-02-19T22:43:44.934Z,102111.13
2023-02-19T22:46:17.462Z,102119.56
2023-02-19T22:48:43.995Z,102115.09
2023-02-19T22:51:15.127Z,102107.75
2023-02-19T22:53:49.536Z,102118.09
2023-02-19T22:56:16.889Z,102109.06
2023-02-19T22:58:43.625Z,102102.19
2023-02-19T23:01:11.526Z,102102.19
2023-02-19T23:03:55.735Z,102105.75
2023-02-19T23:06:27.873Z,102104.53
2023-02-19T23:08:55.691Z,102103.75
2023-02-19T23:11:27.504Z,102109.06
2023-02-19T23:13:54.413Z,102109.84
2023-02-19T23:16:21.078Z,102105.44
2023-02-19T23:18:48.060Z,102091.44
2023-02-19T23:21:14.859Z,102090.94
2023-02-19T23:23:42.449Z,102100.75
2023-02-19T23:26:09.890Z,102094.78
2023-02-19T23:28:36.453Z,102090.72
2023-02-19T23:31:02.922Z,102082.44
2023-02-19T23:33:29.349Z,102081.78
2023-02-19T23:35:55.785Z,102075.47
2023-02-19T23:38:22.229Z,102067.97
2023-02-19T23:40:48.614Z,102057.47
2023-02-19T23:43:15.030Z,102057.72
2023-02-19T23:45:41.484Z,102053.25
2023-02-19T23:48:07.923Z,102045.19
2023-02-19T23:50:34.339Z,102052.97
2023-02-19T23:53:00.791Z,102045.78
2023-02-19T23:55:27.336Z,102036.63
2023-02-19T23:57:53.959Z,102033.03
